Time;durP1;ratioP1;P1;durP2;ratioP2;P2;SDS_P1;SDS_P2;PMS_P1;PMS_P2;Temp;Humidity;BMP_temperature;BMP_pressure;BME280_temperature;BME280_humidity;BME280_pressure;Samples;Min_cycle;Max_cycle;Signal;HPM_P1;HPM_P2
2022/06/09 00:00:07;;;;;;;4.70;3.52;;;;;;;25.22;47.85;100107.28;1784556;80;21174;-80
2022/06/09 00:02:35;;;;;;;4.80;3.40;;;;;;;25.22;47.86;100107.86;1787744;77;21032;-80
2022/06/09 00:05:02;;;;;;;6.00;3.45;;;;;;;25.22;47.88;100100.91;1784965;80;21420;-80
2022/06/09 00:07:28;;;;;;;4.85;3.37;;;;;;;25.23;47.86;100099.73;1787367;77;21148;-79
2022/06/09 00:09:59;;;;;;;4.03;3.30;;;;;;;25.22;47.88;100100.91;1784578;80;21126;-80
2022/06/09 00:12:25;;;;;;;;;;;;;;;25.22;47.91;100107.86;1818466;77;21761;-80
2022/06/09 00:14:52;;;;;;;4.67;3.25;;;;;;;25.20;47.89;100099.89;1783301;79;20163;-80
2022/06/09 00:17:18;;;;;;;5.62;3.75;;;;;;;25.20;47.88;100108.25;1785176;80;21048;-80
2022/06/09 00:19:44;;;;;;;4.45;3.17;;;;;;;25.21;47.93;100113.20;1815477;77;21035;-79
2022/06/09 00:22:11;;;;;;;5.45;3.20;;;;;;;25.21;47.92;100113.20;1784835;80;21141;-80
2022/06/09 00:24:37;;;;;;;4.78;3.17;;;;;;;25.19;47.95;100113.59;1815454;77;21680;-80
2022/06/09 00:27:04;;;;;;;4.70;3.47;;;;;;;25.20;47.94;100102.67;1785341;79;21078;-80
2022/06/09 00:29:30;;;;;;;5.00;3.20;;;;;;;25.20;47.96;100105.46;1815353;77;21015;-80
2022/06/09 00:31:57;;;;;;;4.15;3.30;;;;;;;25.20;47.99;100099.89;1783659;79;21028;-80
2022/06/09 00:34:23;;;;;;;3.85;3.10;;;;;;;25.20;47.98;100098.50;1785103;79;20976;-80
2022/06/09 00:36:50;;;;;;;4.58;3.65;;;;;;;25.20;48.00;100097.11;1815680;77;21875;-80
2022/06/09 00:39:16;;;;;;;5.20;3.70;;;;;;;25.21;47.99;100102.06;1785218;80;21032;-80
2022/06/09 00:41:43;;;;;;;6.78;3.45;;;;;;;25.20;48.01;100097.69;1815735;77;20988;-80
2022/06/09 00:44:18;;;;;;;5.20;3.37;;;;;;;25.20;48.01;100092.13;1784910;80;20992;-80
2022/06/09 00:46:46;;;;;;;4.62;3.45;;;;;;;25.21;48.02;100093.71;1816039;77;21016;-80
2022/06/09 00:49:21;;;;;;;4.87;3.55;;;;;;;25.20;48.02;100088.76;1785073;80;20980;-80
2022/06/09 00:51:50;;;;;;;4.85;3.70;;;;;;;25.20;48.04;100092.13;1815606;77;21019;-80
2022/06/09 00:54:35;;;;;;;4.92;3.47;;;;;;;25.20;48.02;100091.54;1782370;79;21047;-80
2022/06/09 00:57:17;;;;;;;4.62;3.40;;;;;;;25.18;48.04;100093.88;1793725;80;21581;-79
2022/06/09 00:59:46;;;;;;;4.62;3.58;;;;;;;25.20;48.04;100097.11;1775086;80;21015;-80
2022/06/09 01:02:15;;;;;;;4.50;3.42;;;;;;;25.18;48.04;100086.91;1784405;80;21660;-80
2022/06/09 01:04:42;;;;;;;5.92;3.98;;;;;;;25.18;48.04;100091.09;1781838;79;21039;-80
2022/06/09 01:07:10;;;;;;;4.47;3.20;;;;;;;25.19;48.07;100098.86;1793864;80;21670;-80
2022/06/09 01:09:37;;;;;;;5.12;3.47;;;;;;;25.18;48.09;100095.27;1794040;78;21039;-80
2022/06/09 01:12:23;;;;;;;4.47;3.45;;;;;;;25.17;48.10;100100.60;1769548;78;21122;-80
2022/06/09 01:14:50;;;;;;;5.47;3.80;;;;;;;25.18;48.08;100102.80;1769882;80;21190;-80
2022/06/09 01:17:40;;;;;;;5.05;3.80;;;;;;;25.18;48.09;100109.77;1794225;79;21051;-80
2022/06/09 01:20:44;;;;;;;6.12;3.40;;;;;;;25.18;48.12;100106.98;1793147;79;21055;-80
2022/06/09 01:23:35;;;;;;;5.90;3.77;;;;;;;25.17;48.12;100106.17;1794153;80;21051;-80
2022/06/09 01:26:25;;;;;;;6.30;3.83;;;;;;;25.16;48.11;100108.76;1793133;79;21579;-80
2022/06/09 01:29:39;;;;;;;5.17;3.47;;;;;;;25.16;48.11;100110.73;1794225;80;21217;-80
2022/06/09 01:32:10;;;;;;;4.22;3.60;;;;;;;25.14;48.12;100102.73;1793901;80;21043;-80
2022/06/09 01:34:57;;;;;;;4.83;3.33;;;;;;;25.14;48.12;100094.38;1770473;80;21489;-80
2022/06/09 01:37:37;;;;;;;4.33;3.87;;;;;;;25.15;48.14;100096.00;1793881;78;21109;-80
2022/06/09 01:40:07;;;;;;;6.12;3.80;;;;;;;25.14;48.16;100092.99;1794177;79;21055;-80
2022/06/09 01:42:43;;;;;;;5.60;3.90;;;;;;;25.13;48.16;100096.94;1794061;79;21078;-79
2022/06/09 01:45:33;;;;;;;5.22;3.62;;;;;;;25.13;48.19;100091.37;1794172;79;20987;-80
2022/06/09 01:48:09;;;;;;;5.40;3.95;;;;;;;25.14;48.19;100089.40;1793899;79;21309;-80
2022/06/09 01:50:45;;;;;;;4.58;3.42;;;;;;;25.13;48.20;100087.20;1794115;79;21083;-79
2022/06/09 01:53:35;;;;;;;7.20;3.70;;;;;;;25.13;48.20;100079.42;1793789;78;21110;-78
2022/06/09 01:56:17;;;;;;;5.58;3.80;;;;;;;25.13;48.22;100080.23;1794234;79;21128;-80
2022/06/09 01:58:51;;;;;;;4.42;3.72;;;;;;;25.13;48.22;100084.99;1793703;80;21087;-80
2022/06/09 02:01:21;;;;;;;7.37;3.80;;;;;;;25.13;48.20;100080.82;1769959;80;21046;-80
2022/06/09 02:03:47;;;;;;;6.03;3.60;;;;;;;25.13;48.23;100078.03;1784515;79;21029;-80
2022/06/09 02:06:14;;;;;;;5.92;3.50;;;;;;;25.13;48.22;100081.63;1781829;79;21016;-80
2022/06/09 02:08:40;;;;;;;4.97;3.77;;;;;;;25.13;48.23;100080.23;1769732;80;21720;-80
2022/06/09 02:11:11;;;;;;;5.55;3.67;;;;;;;25.13;48.25;100079.42;1793961;78;21059;-80
2022/06/09 02:13:41;;;;;;;5.53;3.55;;;;;;;25.14;48.26;100081.05;1794157;79;21669;-81
2022/06/09 02:16:12;;;;;;;5.58;3.90;;;;;;;25.14;48.24;100074.90;1794283;80;21617;-80
2022/06/09 02:18:42;;;;;;;8.00;3.75;;;;;;;25.13;48.25;100069.10;1793965;78;20972;-81
2022/06/09 02:21:20;;;;;;;6.63;3.60;;;;;;;25.13;48.07;100066.31;1794404;78;21109;-81
2022/06/09 02:23:47;;;;;;;4.65;3.20;;;;;;;25.13;48.07;100066.31;1793919;80;21036;-81
2022/06/09 02:26:20;;;;;;;4.28;3.62;;;;;;;25.13;48.25;100067.71;1794088;80;21074;-80
2022/06/09 02:28:47;;;;;;;3.98;3.17;;;;;;;25.13;48.23;100068.30;1793930;78;21051;-80
2022/06/09 02:31:15;;;;;;;5.90;3.62;;;;;;;25.13;48.23;100068.30;1793953;78;21074;-81
2022/06/09 02:33:47;;;;;;;6.12;3.95;;;;;;;25.13;48.24;100066.31;1793926;78;21123;-80
2022/06/09 02:36:14;;;;;;;5.67;3.25;;;;;;;25.13;48.24;100060.75;1793905;80;21114;-81
2022/06/09 02:38:40;;;;;;;3.98;3.55;;;;;;;25.14;48.24;100067.13;1793803;79;21070;-81
2022/06/09 02:41:07;;;;;;;5.65;3.67;;;;;;;25.14;48.25;100058.78;1793982;79;21075;-81
2022/06/09 02:43:33;;;;;;;4.80;3.45;;;;;;;25.14;48.23;100057.38;1793749;79;22245;-81
2022/06/09 02:46:01;;;;;;;4.67;3.58;;;;;;;25.14;48.23;100053.21;1793684;79;21019;-81
2022/06/09 02:48:27;;;;;;;4.92;3.42;;;;;;;25.14;48.23;100042.08;1794073;79;21075;-81
2022/06/09 02:50:54;;;;;;;4.95;3.50;;;;;;;25.13;48.24;100049.62;1794010;79;21004;-81
2022/06/09 02:53:22;;;;;;;5.08;3.37;;;;;;;25.13;48.23;100057.97;1793768;80;21031;-81
2022/06/09 02:55:48;;;;;;;5.08;3.50;;;;;;;25.14;48.24;100059.59;1786443;79;21145;-80
2022/06/09 02:58:15;;;;;;;5.47;3.60;;;;;;;25.13;48.24;100049.62;1816173;77;21734;-81
2022/06/09 03:00:49;;;;;;;6.58;3.50;;;;;;;25.14;48.22;100055.41;1784980;80;21274;-81
2022/06/09 03:03:15;;;;;;;5.47;3.70;;;;;;;25.14;48.24;100055.99;1815372;79;21094;-81
2022/06/09 03:05:42;;;;;;;5.87;3.50;;;;;;;25.14;48.22;100056.80;1785256;80;21090;-80
2022/06/09 03:08:08;;;;;;;4.12;3.05;;;;;;;25.13;48.24;100062.14;1815706;79;21558;-80
2022/06/09 03:10:36;;;;;;;4.80;4.00;;;;;;;25.14;48.23;100056.80;1785130;80;21634;-81
2022/06/09 03:13:02;;;;;;;5.35;3.40;;;;;;;25.14;48.23;100054.02;1815646;77;21589;-81
2022/06/09 03:15:35;;;;;;;6.25;3.47;;;;;;;25.14;48.22;100056.80;1785014;80;21597;-79
2022/06/09 03:18:02;;;;;;;5.58;3.67;;;;;;;25.14;48.22;100051.81;1815879;79;21086;-80
2022/06/09 03:20:31;;;;;;;4.92;3.70;;;;;;;25.13;48.23;100048.22;1783136;79;21066;-80
2022/06/09 03:22:57;;;;;;;4.70;3.60;;;;;;;25.13;48.23;100042.66;1785045;79;21039;-80
2022/06/09 03:25:24;;;;;;;5.28;4.08;;;;;;;25.14;48.23;100046.25;1815685;77;21478;-80
2022/06/09 03:27:50;;;;;;;4.58;3.33;;;;;;;25.14;48.24;100044.28;1785320;80;21106;-80
2022/06/09 03:30:17;;;;;;;5.95;3.55;;;;;;;25.14;48.23;100045.67;1815385;77;21015;-80
2022/06/09 03:32:43;;;;;;;5.33;3.60;;;;;;;25.13;48.24;100052.41;1785292;80;21087;-80
2022/06/09 03:35:10;;;;;;;4.62;3.65;;;;;;;25.13;48.23;100057.97;1815793;77;21027;-80
2022/06/09 03:37:36;;;;;;;5.15;3.20;;;;;;;25.14;48.22;100062.95;1785140;80;21349;-80
2022/06/09 03:40:05;;;;;;;4.87;3.70;;;;;;;25.14;48.24;100058.20;1815950;77;21578;-81
2022/06/09 03:42:31;;;;;;;4.03;3.20;;;;;;;25.15;48.23;100063.18;1785418;80;21098;-80
2022/06/09 03:44:58;;;;;;;5.40;3.55;;;;;;;25.15;48.25;100063.18;1815635;77;21071;-81
2022/06/09 03:47:24;;;;;;;5.08;3.83;;;;;;;25.15;48.22;100059.00;1785443;80;21501;-80
2022/06/09 03:49:51;;;;;;;5.30;3.72;;;;;;;25.14;48.24;100058.20;1815897;77;21334;-81
2022/06/09 03:52:18;;;;;;;5.08;3.55;;;;;;;25.15;48.24;100060.39;1785033;79;21106;-81
2022/06/09 03:54:44;;;;;;;5.03;3.72;;;;;;;25.15;48.23;100064.58;1815278;79;21420;-80
2022/06/09 03:57:11;;;;;;;4.00;3.10;;;;;;;25.16;48.23;100062.83;1794288;78;21083;-80
2022/06/09 03:59:37;;;;;;;4.50;3.30;;;;;;;25.14;48.23;100060.98;1793742;80;21517;-80
2022/06/09 04:02:04;;;;;;;5.58;3.52;;;;;;;25.14;48.24;100062.38;1793914;78;21012;-80
2022/06/09 04:04:30;;;;;;;6.05;3.95;;;;;;;25.14;48.24;100054.60;1769389;80;21518;-80
2022/06/09 04:06:58;;;;;;;6.90;3.52;;;;;;;25.13;48.28;100051.59;1793853;79;21082;-80
2022/06/09 04:09:24;;;;;;;5.92;3.80;;;;;;;25.10;48.38;100055.92;1793895;78;21102;-80
2022/06/09 04:11:51;;;;;;;9.45;3.80;;;;;;;25.10;48.39;100066.25;1794083;80;21058;-80
2022/06/09 04:14:23;;;;;;;6.87;3.55;;;;;;;25.08;48.38;100063.82;1793693;79;21118;-79
2022/06/09 04:16:54;;;;;;;4.95;3.62;;;;;;;25.06;48.34;100064.79;1794147;78;20941;-80
2022/06/09 04:19:18;;;;;;;8.55;4.03;;;;;;;25.03;48.09;100060.55;1793642;79;21051;-80
2022/06/09 04:21:44;;;;;;;6.45;3.80;;;;;;;24.98;48.09;100054.09;1793921;78;21063;-80
2022/06/09 04:24:17;;;;;;;7.80;4.58;;;;;;;24.93;48.16;100056.36;1793951;80;21203;-80
2022/06/09 04:26:44;;;;;;;5.30;4.25;;;;;;;24.92;48.34;100059.72;1785423;80;21488;-79
2022/06/09 04:29:12;;;;;;;8.23;4.70;;;;;;;24.93;48.46;100054.37;1784387;80;21040;-83
2022/06/09 04:31:40;;;;;;;6.97;4.70;;;;;;;24.92;48.46;100058.33;1789847;79;21783;-79
2022/06/09 04:34:06;;;;;;;5.37;4.50;;;;;;;24.89;48.59;100059.64;1785337;80;21048;-80
2022/06/09 04:36:33;;;;;;;6.05;4.47;;;;;;;24.89;48.66;100056.28;1784654;79;21567;-79
2022/06/09 04:38:59;;;;;;;6.45;4.97;;;;;;;24.91;48.67;100054.50;1739641;81;21576;-79
2022/06/09 04:41:26;;;;;;;6.28;4.80;;;;;;;24.90;48.66;100049.55;1739658;81;21086;-81
2022/06/09 04:43:52;;;;;;;12.20;5.35;;;;;;;24.90;48.65;100054.31;1739497;82;21142;-79
2022/06/09 04:46:22;;;;;;;7.70;4.28;;;;;;;24.88;48.70;100058.84;1739821;81;21767;-79
2022/06/09 04:48:48;;;;;;;9.55;4.83;;;;;;;24.86;48.75;100052.84;1739900;81;21530;-79
2022/06/09 04:51:20;;;;;;;10.30;4.42;;;;;;;24.85;48.82;100051.78;1727018;81;21557;-79
2022/06/09 04:53:44;;;;;;;7.73;4.30;;;;;;;24.84;48.89;100055.14;1727206;81;21053;-79
2022/06/09 04:56:11;;;;;;;9.35;4.10;;;;;;;24.84;48.94;100064.07;1747332;79;21103;-80
2022/06/09 04:58:40;;;;;;;10.85;4.53;;;;;;;24.83;49.00;100068.02;1745357;81;21137;-80
2022/06/09 05:01:23;;;;;;;11.93;4.60;;;;;;;24.82;49.09;100067.23;1764684;80;21187;-78
2022/06/09 05:03:49;;;;;;;8.45;4.30;;;;;;;24.80;49.17;100074.31;1747080;80;21094;-81
2022/06/09 05:06:18;;;;;;;6.35;3.98;;;;;;;24.78;49.29;100072.50;1740227;81;21696;-81
2022/06/09 05:08:46;;;;;;;8.73;3.80;;;;;;;24.77;49.37;100079.22;1754672;80;21016;-77
2022/06/09 05:11:12;;;;;;;6.05;3.75;;;;;;;24.77;49.42;100077.25;1763717;79;21039;-79
2022/06/09 05:13:39;;;;;;;8.70;3.47;;;;;;;24.78;49.43;100081.63;1759968;80;21130;-79
2022/06/09 05:16:08;;;;;;;9.25;3.47;;;;;;;24.79;49.46;100080.46;1778795;79;21058;-81
2022/06/09 05:18:34;;;;;;;9.28;4.12;;;;;;;24.80;49.45;100093.20;1746687;80;21086;-79
2022/06/09 05:21:01;;;;;;;9.10;3.62;;;;;;;24.80;49.56;100091.81;1762635;79;21453;-81
2022/06/09 05:23:28;;;;;;;8.53;2.95;;;;;;;24.81;49.60;100093.44;1710238;80;21093;-79
2022/06/09 05:25:55;;;;;;;8.33;3.15;;;;;;;24.79;49.61;100097.73;1758472;79;21173;-79
2022/06/09 05:28:22;;;;;;;5.62;3.02;;;;;;;24.77;49.71;100105.08;1759700;79;21041;-82
2022/06/09 05:30:48;;;;;;;17.07;11.10;;;;;;;24.78;49.76;100101.70;1757108;79;21129;-80
2022/06/09 05:33:22;;;;;;;13.53;9.05;;;;;;;24.79;49.78;100101.33;1759189;79;21092;-83
2022/06/09 05:35:48;;;;;;;17.60;9.60;;;;;;;24.81;49.81;100100.39;1766517;79;21944;-83
2022/06/09 05:46:33;;;;;;;14.87;8.70;;;;;;;24.90;49.98;100102.42;1774088;79;21112;-81
2022/06/09 05:49:00;;;;;;;14.20;8.35;;;;;;;24.93;50.03;100104.47;1772251;79;21022;-81
2022/06/09 05:51:26;;;;;;;14.83;7.03;;;;;;;24.94;50.07;100108.06;1769775;79;21130;-83
2022/06/09 05:53:55;;;;;;;15.20;7.85;;;;;;;24.95;50.13;100105.51;1768846;79;21440;-80
2022/06/09 05:56:21;;;;;;;14.25;8.03;;;;;;;24.95;50.24;100103.50;1769214;80;21064;-83
2022/06/09 05:58:48;;;;;;;17.10;8.40;;;;;;;24.95;50.27;100104.12;1776017;80;21068;-82
2022/06/09 06:01:14;;;;;;;17.25;6.78;;;;;;;24.97;50.34;100105.36;1754106;80;21062;-83
2022/06/09 06:03:41;;;;;;;15.68;7.60;;;;;;;24.98;50.39;100099.20;1760648;79;22168;-84
2022/06/09 06:08:53;;;;;;;14.75;6.45;;;;;;;24.99;50.42;100105.78;1779379;80;21616;-87
2022/06/09 06:11:19;;;;;;;8.33;5.35;;;;;;;25.00;50.45;100107.40;1781370;78;21075;-84
2022/06/09 06:13:46;;;;;;;15.13;7.78;;;;;;;24.99;50.41;100110.56;1786936;79;21087;-85
2022/06/09 06:16:15;;;;;;;16.42;10.65;;;;;;;24.99;50.44;100113.35;1757852;78;21136;-84
2022/06/09 06:18:41;;;;;;;9.93;5.60;;;;;;;25.00;50.48;100107.40;1773269;80;21082;-83
2022/06/09 06:21:07;;;;;;;6.92;3.52;;;;;;;25.00;50.39;100106.59;1771195;78;21507;-81
2022/06/09 06:23:34;;;;;;;6.05;3.37;;;;;;;24.96;50.18;100103.73;1783743;80;21034;-83
2022/06/09 06:26:00;;;;;;;6.03;3.55;;;;;;;24.95;50.11;100099.94;1763669;80;21019;-83
2022/06/09 06:28:28;;;;;;;9.38;4.05;;;;;;;24.93;50.03;100101.69;1773802;78;21098;-85
2022/06/09 06:30:55;;;;;;;8.80;4.08;;;;;;;24.91;49.96;100097.64;1780590;80;21741;-83
2022/06/09 06:33:23;;;;;;;7.87;3.05;;;;;;;24.88;49.99;100095.02;1782511;78;21580;-84
2022/06/09 06:35:50;;;;;;;7.03;3.20;;;;;;;24.89;49.95;100093.03;1759899;79;21089;-82
2022/06/09 06:38:16;;;;;;;7.08;3.00;;;;;;;24.88;49.91;100096.41;1759916;79;21856;-81
2022/06/09 06:40:43;;;;;;;4.92;2.30;;;;;;;24.88;49.90;100098.37;1755253;79;21750;-83
2022/06/09 06:43:09;;;;;;;9.95;3.52;;;;;;;24.88;49.96;100097.80;1761038;81;21001;-81
2022/06/09 06:45:36;;;;;;;5.58;2.80;;;;;;;24.89;49.96;100096.62;1753982;80;21097;-82
2022/06/09 06:48:03;;;;;;;6.90;3.27;;;;;;;24.92;50.00;100096.47;1752612;81;21934;-81
2022/06/09 06:50:32;;;;;;;15.38;4.22;;;;;;;24.92;50.00;100097.28;1759239;81;21642;-84
2022/06/09 06:52:59;;;;;;;8.80;4.40;;;;;;;24.95;50.13;100104.12;1754058;81;21186;-78
2022/06/09 06:55:25;;;;;;;13.60;5.87;;;;;;;24.96;50.24;100110.69;1761938;80;21024;-78
2022/06/09 06:57:53;;;;;;;11.08;5.53;;;;;;;24.96;50.38;100099.56;1765597;79;21122;-78
2022/06/09 07:00:21;;;;;;;13.40;5.70;;;;;;;24.97;50.41;100101.76;1768757;79;21063;-77
2022/06/09 07:02:48;;;;;;;9.43;3.92;;;;;;;24.98;50.50;100100.59;1775714;78;21359;-76
2022/06/09 07:05:15;;;;;;;12.82;3.72;;;;;;;24.99;50.48;100093.88;1782118;79;21257;-78
2022/06/09 07:07:41;;;;;;;8.60;3.17;;;;;;;24.98;50.51;100091.67;1773334;78;21035;-78
2022/06/09 07:10:09;;;;;;;5.85;3.65;;;;;;;24.98;50.49;100100.59;1778127;78;20945;-77
2022/06/09 07:12:35;;;;;;;6.28;3.20;;;;;;;24.99;50.44;100099.44;1772780;80;20947;-79
2022/06/09 07:15:01;;;;;;;8.78;3.15;;;;;;;24.99;50.36;100097.43;1781168;80;21553;-78
2022/06/09 07:17:28;;;;;;;6.67;2.83;;;;;;;24.99;50.17;100095.27;1772745;78;21483;-78
2022/06/09 07:19:54;;;;;;;5.00;2.52;;;;;;;24.98;50.03;100095.84;1774389;80;21762;-78
2022/06/09 07:22:20;;;;;;;7.40;1.98;;;;;;;24.97;49.93;100098.40;1779681;79;21030;-77
2022/06/09 07:24:47;;;;;;;8.15;2.40;;;;;;;24.98;49.79;100102.80;1773563;80;21064;-78
2022/06/09 07:27:14;;;;;;;4.85;2.35;;;;;;;24.98;49.67;100104.19;1773999;78;21229;-78
2022/06/09 07:29:40;;;;;;;5.45;2.10;;;;;;;24.98;49.57;100101.98;1706179;82;21180;-79
2022/06/09 07:32:07;;;;;;;2.83;2.02;;;;;;;24.96;49.39;100097.36;1704379;78;133343;-85
2022/06/09 07:34:34;;;;;;;7.12;2.17;;;;;;;24.97;49.28;100096.20;1683077;84;21064;-86
2022/06/09 07:37:01;;;;;;;4.60;2.20;;;;;;;24.95;49.21;100092.38;1693054;84;21067;-85
2022/06/09 07:39:27;;;;;;;3.77;1.98;;;;;;;24.96;49.09;100101.53;1704361;82;21541;-86
2022/06/09 07:41:54;;;;;;;6.30;2.40;;;;;;;24.96;48.99;100094.58;1714265;82;21793;-86
2022/06/09 07:44:20;;;;;;;13.60;3.12;;;;;;;24.96;48.88;100098.17;1694454;83;21036;-86
2022/06/09 07:46:47;;;;;;;4.35;2.10;;;;;;;24.95;48.74;100100.72;1693861;83;21095;-86
2022/06/09 07:49:13;;;;;;;2.92;1.77;;;;;;;24.96;48.63;100100.14;1711407;82;21534;-86
2022/06/09 07:51:39;;;;;;;6.90;2.42;;;;;;;24.96;48.53;100102.92;1696739;83;21649;-85
2022/06/09 07:54:06;;;;;;;7.28;2.40;;;;;;;24.95;48.42;100100.72;1693208;82;21136;-86
2022/06/09 07:56:33;;;;;;;9.38;2.98;;;;;;;24.96;48.52;100097.36;1696064;82;21375;-85
2022/06/09 07:59:01;;;;;;;7.53;3.08;;;;;;;24.98;48.64;100095.03;1697267;82;21041;-85
2022/06/09 08:01:28;;;;;;;6.72;3.65;;;;;;;24.99;48.71;100089.69;1671854;83;21094;-85
2022/06/09 08:03:54;;;;;;;6.17;3.75;;;;;;;25.00;48.71;100094.06;1698435;82;21114;-85
2022/06/09 08:06:22;;;;;;;5.28;3.17;;;;;;;25.01;48.71;100086.75;1685182;83;21169;-84
2022/06/09 08:08:49;;;;;;;6.20;3.65;;;;;;;25.03;48.68;100087.80;1694829;83;21589;-85
2022/06/09 08:11:16;;;;;;;7.35;3.60;;;;;;;25.04;48.63;100087.99;1687365;84;21057;-86
2022/06/09 08:13:43;;;;;;;6.67;3.25;;;;;;;25.04;48.69;100097.73;1697285;83;21401;-85
2022/06/09 08:16:15;;;;;;;5.45;2.45;;;;;;;25.05;48.69;100099.94;1704208;82;21067;-85
2022/06/09 08:18:41;;;;;;;5.05;2.90;;;;;;;25.06;48.54;100107.93;1701026;82;21614;-86
2022/06/09 08:21:08;;;;;;;6.15;2.55;;;;;;;25.05;48.58;100100.74;1703729;82;21725;-86
2022/06/09 08:23:34;;;;;;;4.87;2.40;;;;;;;25.06;48.56;100103.75;1705846;82;21478;-85
2022/06/09 08:26:03;;;;;;;4.47;3.10;;;;;;;25.06;48.47;100112.11;1708239;82;21509;-86
2022/06/09 08:28:29;;;;;;;3.70;2.52;;;;;;;25.07;48.49;100110.12;1701197;82;21099;-86
2022/06/09 08:30:56;;;;;;;5.92;2.60;;;;;;;25.07;48.49;100111.52;1698657;83;21512;-85
2022/06/09 08:33:23;;;;;;;4.15;3.05;;;;;;;25.07;48.46;100112.33;1711451;82;21459;-86
2022/06/09 08:35:49;;;;;;;4.05;2.55;;;;;;;25.08;48.45;100113.14;1729503;82;21130;-85
2022/06/09 08:38:16;;;;;;;4.45;2.45;;;;;;;25.08;48.43;100108.97;1689656;82;21497;-86
2022/06/09 08:41:03;;;;;;;4.05;2.30;;;;;;;25.07;48.38;100105.95;1694924;83;21096;-86
2022/06/09 08:43:38;;;;;;;4.85;2.35;;;;;;;25.06;48.30;100114.08;1720318;83;21111;-87
2022/06/09 08:46:16;;;;;;;4.70;2.62;;;;;;;25.04;48.24;100103.30;1704740;83;21091;-87
2022/06/09 08:48:43;;;;;;;4.42;2.50;;;;;;;25.04;48.23;100108.09;1735076;80;21467;-86
2022/06/09 08:51:20;;;;;;;5.37;2.12;;;;;;;25.04;48.18;100106.70;1759440;80;21066;-86
2022/06/09 08:53:55;;;;;;;4.72;1.90;;;;;;;25.03;48.12;100107.27;1757912;80;21518;-89
2022/06/09 08:56:28;;;;;;;4.92;2.10;;;;;;;25.02;48.04;100108.44;1745967;79;22128;-86
2022/06/09 08:59:10;;;;;;;4.83;2.00;;;;;;;25.01;47.97;100108.21;1760828;80;21317;-83
2022/06/09 09:01:44;;;;;;;5.58;2.37;;;;;;;25.01;47.87;100109.60;1751218;79;21107;-85
2022/06/09 09:04:24;;;;;;;6.97;1.92;;;;;;;25.00;47.86;100106.01;1724111;82;21568;-84
2022/06/09 09:07:20;;;;;;;5.45;1.80;;;;;;;24.99;47.77;100108.56;1757337;80;21103;-85
2022/06/09 09:09:46;;;;;;;7.60;2.40;;;;;;;24.96;47.77;100110.69;1771742;80;21542;-82
2022/06/09 09:12:46;;;;;;;7.42;1.90;;;;;;;24.96;47.74;100109.88;1761514;80;21019;-84
2022/06/09 09:15:31;;;;;;;4.87;1.80;;;;;;;24.95;47.69;100114.64;1723559;82;21116;-84
2022/06/09 09:18:37;;;;;;;2.52;1.80;;;;;;;24.95;47.65;100109.68;1693371;82;22107;-85
2022/06/09 09:21:37;;;;;;;5.00;1.70;;;;;;;24.95;47.53;100106.28;1744300;80;21627;-86
2022/06/09 09:24:42;;;;;;;7.17;1.80;;;;;;;24.95;47.47;100095.16;1746300;80;21510;-81
2022/06/09 09:27:26;;;;;;;2.58;1.40;;;;;;;24.95;47.41;100083.25;1724943;80;21041;-84
2022/06/09 09:30:22;;;;;;;4.50;1.75;;;;;;;24.96;47.36;100089.01;1740706;80;21044;-84
2022/06/09 09:32:54;;;;;;;3.58;1.87;;;;;;;24.96;47.40;100081.47;1745253;80;21054;-85
2022/06/09 09:35:31;;;;;;;8.33;2.20;;;;;;;24.99;47.59;100077.17;1740783;80;21079;-81
2022/06/09 09:37:58;;;;;;;10.13;2.25;;;;;;;25.01;47.77;100083.97;1740888;80;21935;-84
2022/06/09 09:40:35;;;;;;;4.80;2.55;;;;;;;25.00;47.87;100080.16;1745402;80;21059;-84
2022/06/09 09:43:10;;;;;;;6.53;2.22;;;;;;;25.01;47.98;100078.41;1750445;80;21184;-82
2022/06/09 09:45:43;;;;;;;7.65;2.55;;;;;;;25.00;48.05;100074.59;1758467;80;21087;-83
2022/06/09 09:48:27;;;;;;;5.80;2.05;;;;;;;25.00;48.14;100075.39;1744128;80;21670;-85
2022/06/09 09:51:00;;;;;;;8.00;2.47;;;;;;;25.01;48.22;100076.20;1749785;80;21144;-83
2022/06/09 09:53:35;;;;;;;9.73;2.55;;;;;;;25.01;48.35;100071.45;1725457;80;21225;-83
2022/06/09 09:56:18;;;;;;;12.85;3.58;;;;;;;25.02;48.42;100070.87;1742721;80;21390;-82
2022/06/09 09:59:07;;;;;;;;;;;;;;;25.04;48.49;100063.55;1732325;81;21637;-84
2022/06/09 10:10:19;;;;;;;7.10;3.45;;;;;;;25.04;48.68;100064.95;1743491;80;21069;-84
2022/06/09 10:12:45;;;;;;;8.58;3.30;;;;;;;25.03;48.63;100064.14;1698050;80;21110;-84
2022/06/09 10:15:26;;;;;;;7.28;4.10;;;;;;;25.04;48.58;100066.34;1746394;80;21048;-84
2022/06/09 10:18:03;;;;;;;5.97;2.80;;;;;;;25.04;48.56;100061.55;1755887;80;21078;-83
2022/06/09 10:20:49;;;;;;;5.97;2.17;;;;;;;25.03;48.49;100060.55;1761974;80;21944;-84
2022/06/09 10:23:44;;;;;;;6.25;2.90;;;;;;;25.04;48.36;100051.03;1760902;80;21474;-84
2022/06/09 10:26:25;;;;;;;6.97;3.00;;;;;;;25.05;48.35;100056.80;1760705;80;21127;-83
2022/06/09 10:29:00;;;;;;;5.80;2.35;;;;;;;25.05;48.35;100051.23;1743600;80;21127;-84
2022/06/09 10:31:44;;;;;;;8.93;2.42;;;;;;;25.05;48.25;100054.82;1761169;79;22442;-86
2022/06/09 10:34:51;;;;;;;8.08;3.58;;;;;;;25.05;48.23;100049.25;1750154;80;21653;-83
2022/06/09 10:37:25;;;;;;;21.93;10.18;;;;;;;25.06;48.23;100040.33;1749907;80;21484;-82
2022/06/09 10:40:00;;;;;;;10.90;5.47;;;;;;;25.07;48.34;100035.80;1759426;80;21024;-83
2022/06/09 10:42:58;;;;;;;10.55;4.62;;;;;;;25.08;48.40;100035.21;1729373;80;21111;-84
2022/06/09 10:45:36;;;;;;;8.85;3.60;;;;;;;25.06;48.36;100027.22;1765604;80;21261;-84
2022/06/09 10:57:49;;;;;;;8.98;5.85;;;;;;;25.05;48.37;100020.03;1760863;80;21106;-85
2022/06/09 11:00:36;;;;;;;11.00;5.33;;;;;;;25.04;48.43;100014.23;1758659;80;21981;-87
2022/06/09 11:03:16;;;;;;;14.68;4.80;;;;;;;25.05;48.49;100013.08;1736647;80;21389;-84
2022/06/09 11:06:14;;;;;;;8.10;3.40;;;;;;;25.06;48.55;100014.69;1733165;81;21655;-85
2022/06/09 11:08:57;;;;;;;7.67;3.58;;;;;;;25.06;48.56;100013.30;1707324;82;21056;-86
2022/06/09 11:11:52;;;;;;;8.63;3.05;;;;;;;25.06;48.58;100009.13;1717059;82;21074;-87
2022/06/09 11:14:48;;;;;;;6.15;3.30;;;;;;;25.07;48.50;99997.41;1732820;80;21124;-86
2022/06/09 11:17:40;;;;;;;4.17;2.45;;;;;;;25.07;48.42;100001.58;1758226;80;21075;-86
2022/06/09 11:20:40;;;;;;;4.12;2.58;;;;;;;25.05;48.18;99996.95;1742911;80;21076;-86
2022/06/09 11:23:38;;;;;;;5.35;2.70;;;;;;;25.05;48.11;99988.61;1754056;80;21087;-87
2022/06/09 11:26:12;;;;;;;11.15;3.30;;;;;;;25.05;48.10;99985.83;1708225;80;21077;-86
2022/06/09 11:29:12;;;;;;;5.72;2.87;;;;;;;25.06;48.04;99984.08;1757259;79;21249;-87
2022/06/09 11:32:31;;;;;;;7.75;3.60;;;;;;;25.07;48.04;99980.13;1749229;79;21516;-88
2022/06/09 11:35:15;;;;;;;8.83;3.20;;;;;;;25.07;47.92;99975.95;1752358;80;21087;-85
2022/06/09 11:38:22;;;;;;;9.58;3.40;;;;;;;25.08;48.00;99966.41;1719681;81;21066;-86
2022/06/09 11:41:04;;;;;;;8.13;4.67;;;;;;;25.10;48.05;99968.83;1730596;80;21567;-86
2022/06/09 11:43:51;;;;;;;6.45;3.92;;;;;;;25.10;48.06;99959.90;1730959;80;21959;-87
2022/06/09 11:46:22;;;;;;;6.70;4.05;;;;;;;25.10;48.17;99954.33;1731090;80;21069;-87
2022/06/09 11:48:55;;;;;;;8.85;3.80;;;;;;;25.11;48.23;99961.52;1736158;81;21116;-82
2022/06/09 11:51:25;;;;;;;8.88;3.50;;;;;;;25.13;48.13;99954.98;1755337;80;37489;-85
2022/06/09 11:54:01;;;;;;;7.97;3.72;;;;;;;25.13;48.02;99949.41;1745343;80;21534;-84
2022/06/09 11:56:43;;;;;;;7.53;2.87;;;;;;;25.15;48.01;99942.91;1731975;80;21216;-85
2022/06/09 11:59:16;;;;;;;11.28;3.40;;;;;;;25.17;47.99;99950.28;1737923;80;20957;-86
2022/06/09 12:01:54;;;;;;;7.50;3.37;;;;;;;25.18;47.93;99952.48;1736766;80;20870;-86
2022/06/09 12:04:45;;;;;;;5.50;2.77;;;;;;;25.18;47.95;99949.11;1730635;80;21061;-86
2022/06/09 12:07:51;;;;;;;7.90;2.70;;;;;;;25.19;47.76;99947.14;1722951;80;22201;-87
2022/06/09 12:10:39;;;;;;;6.70;2.30;;;;;;;25.20;47.54;99938.43;1709076;82;22485;-87
2022/06/09 12:13:25;;;;;;;4.60;2.67;;;;;;;25.19;47.29;99937.40;1746376;81;21307;-85
2022/06/09 12:16:08;;;;;;;4.60;2.33;;;;;;;25.20;47.26;99935.65;1736845;80;21107;-85
2022/06/09 12:18:40;;;;;;;4.83;2.77;;;;;;;25.21;47.04;99930.27;1727379;79;21087;-85